Terminal Aerodrome Forecast
Issued by NWS Chicago, IL

Home | Current Version | Previous Version | Graphics & Text | Print | Product List | Glossary On
Versions: 1 2 3 4 5 6 7 8 9 10 11 12 13 14 15 16 17 18 19 20 21 22 23 24 25 26 27 28 29
485
FTUS43 KLOT 231503 AAA
TAFRFD
TAF AMD
KRFD 231503Z 2315/2412 03013KT P6SM BKN018
      TEMPO 2315/2316 SCT018
     FM232000 06013G19KT P6SM BKN025 OVC080
      TEMPO 2322/2401 -SHRA
     FM240100 04014G22KT 4SM -SHRA BR OVC010
     FM240500 06017G25KT 3SM SHRA BR OVC006 PROB30 2406/2412 2SM
      TSRA OVC008CB=

USA.gov is the U.S. government's official web portal to all federal, state and local government web resources and services.